Mazar I Sharif Airport
OAMS : now visible

Airfield :











YOU CAN JOIN US ON...

 
LOGIN :

Register | Disclaimer

   EN    FR    IT 

 









Legend :    VFR   Marginal VFR   IFR   Intensive IFR   Very Intensive IFR
Visi :
Ceiling :
>= 8 km
>= 3000ft
5 to 8 km
1000 to 3000 ft
1500m to 5 km
500 to 1000 ft
800 to 1500m
200 to 500 ft
< 800m
< 200 ft
Symbols :   Thunderstorms  Fog  Heavy snow  Heavy precipitations  Wind > 20 kt






- Airport Elevation : 1284 ft
- IATA code : MZR


OAMS - Mazar I Sharif

CURRENT METAR :
  • 221450Z 09010KT 9999 FEW200 03/M00 Q1029 BLU+WHT

EXPIRED METARs :
  • 221350Z 07012KT 9999 FEW020 SCT200 03/01 Q1029 BLU+WHT

TAF TAF OAMS
Valid from the 22 at 12:00 until the 23 at 12:00 UTC


221105Z 2212/2312 06012KT 9999 NSW BKN020 BKN040 OVC220
BECMG 2214/2216 VRB03KT 9999 NSW FEW020 SCT220
BECMG 2218/2220 24005KT 9999 NSW SCT010
TEMPO 2220/2303 27005KT 6000 NSW BKN010
BECMG 2301/2303 27005KT 9000 NSW SCT220
TEMPO 2303/2306 30005KT 2500 FU SCT220
BECMG 2306/2308 06012KT 9999 NSW SCT120 BKN220



MET'MAP, your aeronautical weather chart ! - Copyright ORBIFLY December 2007 - Disclaimer

ORBIFLY MET'MAP TEAM :

Programming & Development : Alexandra Zaïnal
Concept & original design : Baudouin d'Aumeries
Assistance for programming : Marc-Olivier Méhu
Technical & hardware support : Manuel Goepfert

Contact : metmap@orbifly.com




SOURCES & CREDITS :

   NOAA       Earth
Advisory